sensor_id;sensor_type;location;lat;lon;timestamp;temperature;humidity
70820;DHT22;58439;51.046;13.692;2023-04-09T00:00:19;2.50;99.90
70820;DHT22;58439;51.046;13.692;2023-04-09T00:02:46;2.50;99.90
70820;DHT22;58439;51.046;13.692;2023-04-09T00:05:14;2.40;99.90
70820;DHT22;58439;51.046;13.692;2023-04-09T00:07:41;2.40;99.90
70820;DHT22;58439;51.046;13.692;2023-04-09T00:10:10;2.40;99.90
70820;DHT22;58439;51.046;13.692;2023-04-09T00:12:38;2.50;99.90
70820;DHT22;58439;51.046;13.692;2023-04-09T00:15:06;2.80;99.90
70820;DHT22;58439;51.046;13.692;2023-04-09T00:17:38;2.80;99.90
70820;DHT22;58439;51.046;13.692;2023-04-09T00:20:06;2.80;99.90
70820;DHT22;58439;51.046;13.692;2023-04-09T00:22:34;2.90;99.90
70820;DHT22;58439;51.046;13.692;2023-04-09T00:25:01;2.80;99.90
70820;DHT22;58439;51.046;13.692;2023-04-09T00:27:28;2.70;99.90
70820;DHT22;58439;51.046;13.692;2023-04-09T00:29:55;2.60;99.90
70820;DHT22;58439;51.046;13.692;2023-04-09T00:32:25;2.50;99.90
70820;DHT22;58439;51.046;13.692;2023-04-09T00:34:52;2.40;99.90
70820;DHT22;58439;51.046;13.692;2023-04-09T00:37:19;2.30;99.90
70820;DHT22;58439;51.046;13.692;2023-04-09T00:39:46;2.20;99.90
70820;DHT22;58439;51.046;13.692;2023-04-09T00:42:14;2.10;99.90
70820;DHT22;58439;51.046;13.692;2023-04-09T00:44:42;2.00;99.90
70820;DHT22;58439;51.046;13.692;2023-04-09T00:47:09;1.90;99.90
70820;DHT22;58439;51.046;13.692;2023-04-09T00:49:36;1.90;99.90
70820;DHT22;58439;51.046;13.692;2023-04-09T00:52:03;1.90;99.90
70820;DHT22;58439;51.046;13.692;2023-04-09T00:54:31;1.90;99.90
70820;DHT22;58439;51.046;13.692;2023-04-09T00:56:59;1.90;99.90
70820;DHT22;58439;51.046;13.692;2023-04-09T00:59:28;1.90;99.90
70820;DHT22;58439;51.046;13.692;2023-04-09T01:01:56;1.80;99.90
70820;DHT22;58439;51.046;13.692;2023-04-09T01:04:24;1.90;99.90
70820;DHT22;58439;51.046;13.692;2023-04-09T01:06:57;1.90;99.90
70820;DHT22;58439;51.046;13.692;2023-04-09T01:09:34;2.00;99.90
70820;DHT22;58439;51.046;13.692;2023-04-09T01:15:06;2.00;99.90
70820;DHT22;58439;51.046;13.692;2023-04-09T01:17:49;2.10;99.90
70820;DHT22;58439;51.046;13.692;2023-04-09T01:20:39;2.10;99.90
70820;DHT22;58439;51.046;13.692;2023-04-09T01:23:13;2.20;99.90
70820;DHT22;58439;51.046;13.692;2023-04-09T01:26:00;2.30;99.90
70820;DHT22;58439;51.046;13.692;2023-04-09T01:28:46;2.30;99.90
70820;DHT22;58439;51.046;13.692;2023-04-09T01:31:24;2.30;99.90
70820;DHT22;58439;51.046;13.692;2023-04-09T01:33:56;2.40;99.90
70820;DHT22;58439;51.046;13.692;2023-04-09T01:36:25;2.40;99.90
70820;DHT22;58439;51.046;13.692;2023-04-09T01:38:55;2.40;99.90
70820;DHT22;58439;51.046;13.692;2023-04-09T01:41:24;2.30;99.90
70820;DHT22;58439;51.046;13.692;2023-04-09T01:43:53;2.20;99.90
70820;DHT22;58439;51.046;13.692;2023-04-09T01:46:22;2.30;99.90
70820;DHT22;58439;51.046;13.692;2023-04-09T01:48:51;2.20;99.90
70820;DHT22;58439;51.046;13.692;2023-04-09T01:51:18;2.20;99.90
70820;DHT22;58439;51.046;13.692;2023-04-09T01:53:46;2.10;99.90
70820;DHT22;58439;51.046;13.692;2023-04-09T01:56:14;2.00;99.90
70820;DHT22;58439;51.046;13.692;2023-04-09T01:58:43;2.00;99.90
70820;DHT22;58439;51.046;13.692;2023-04-09T02:01:30;1.90;99.90
70820;DHT22;58439;51.046;13.692;2023-04-09T02:04:03;1.90;99.90
70820;DHT22;58439;51.046;13.692;2023-04-09T02:06:50;1.80;99.90
70820;DHT22;58439;51.046;13.692;2023-04-09T02:09:23;1.80;99.90
70820;DHT22;58439;51.046;13.692;2023-04-09T02:12:02;1.80;99.90
70820;DHT22;58439;51.046;13.692;2023-04-09T02:14:32;1.80;99.90
70820;DHT22;58439;51.046;13.692;2023-04-09T02:17:01;1.80;99.90
70820;DHT22;58439;51.046;13.692;2023-04-09T02:22:11;1.70;99.90
70820;DHT22;58439;51.046;13.692;2023-04-09T02:24:39;1.70;99.90
70820;DHT22;58439;51.046;13.692;2023-04-09T02:27:37;1.70;99.90
70820;DHT22;58439;51.046;13.692;2023-04-09T02:30:05;1.70;99.90
70820;DHT22;58439;51.046;13.692;2023-04-09T02:33:03;1.70;99.90
70820;DHT22;58439;51.046;13.692;2023-04-09T02:35:31;1.60;99.90
70820;DHT22;58439;51.046;13.692;2023-04-09T02:37:59;1.60;99.90
70820;DHT22;58439;51.046;13.692;2023-04-09T02:40:26;1.60;99.90
70820;DHT22;58439;51.046;13.692;2023-04-09T02:42:54;1.70;99.90
70820;DHT22;58439;51.046;13.692;2023-04-09T02:45:24;1.70;99.90
70820;DHT22;58439;51.046;13.692;2023-04-09T02:47:52;1.70;99.90
70820;DHT22;58439;51.046;13.692;2023-04-09T02:50:19;1.70;99.90
70820;DHT22;58439;51.046;13.692;2023-04-09T02:52:49;1.70;99.90
70820;DHT22;58439;51.046;13.692;2023-04-09T02:55:18;1.70;99.90
70820;DHT22;58439;51.046;13.692;2023-04-09T02:57:46;1.70;99.90
70820;DHT22;58439;51.046;13.692;2023-04-09T03:00:13;1.70;99.90
70820;DHT22;58439;51.046;13.692;2023-04-09T03:02:41;1.70;99.90
70820;DHT22;58439;51.046;13.692;2023-04-09T03:05:08;1.60;99.90
70820;DHT22;58439;51.046;13.692;2023-04-09T03:07:36;1.70;99.90
70820;DHT22;58439;51.046;13.692;2023-04-09T03:10:03;1.70;99.90
70820;DHT22;58439;51.046;13.692;2023-04-09T03:12:31;1.80;99.90
70820;DHT22;58439;51.046;13.692;2023-04-09T03:14:58;1.80;99.90
70820;DHT22;58439;51.046;13.692;2023-04-09T03:17:26;1.70;99.90
70820;DHT22;58439;51.046;13.692;2023-04-09T03:19:53;1.70;99.90
70820;DHT22;58439;51.046;13.692;2023-04-09T03:22:20;1.70;99.90
70820;DHT22;58439;51.046;13.692;2023-04-09T03:24:51;1.70;99.90
70820;DHT22;58439;51.046;13.692;2023-04-09T03:27:18;1.70;99.90
70820;DHT22;58439;51.046;13.692;2023-04-09T03:29:50;1.60;99.90
70820;DHT22;58439;51.046;13.692;2023-04-09T03:32:26;1.70;99.90
70820;DHT22;58439;51.046;13.692;2023-04-09T03:34:54;1.70;99.90
70820;DHT22;58439;51.046;13.692;2023-04-09T03:37:21;1.70;99.90
70820;DHT22;58439;51.046;13.692;2023-04-09T03:39:48;1.70;99.90
70820;DHT22;58439;51.046;13.692;2023-04-09T03:42:15;1.70;99.90
70820;DHT22;58439;51.046;13.692;2023-04-09T03:44:46;1.70;99.90
70820;DHT22;58439;51.046;13.692;2023-04-09T03:47:21;1.80;99.90
70820;DHT22;58439;51.046;13.692;2023-04-09T03:49:54;1.90;99.90
70820;DHT22;58439;51.046;13.692;2023-04-09T03:52:26;2.00;99.90
70820;DHT22;58439;51.046;13.692;2023-04-09T03:55:02;2.00;99.90
70820;DHT22;58439;51.046;13.692;2023-04-09T03:57:30;2.10;99.90
70820;DHT22;58439;51.046;13.692;2023-04-09T03:59:57;2.10;99.90
70820;DHT22;58439;51.046;13.692;2023-04-09T04:02:25;2.10;99.90
70820;DHT22;58439;51.046;13.692;2023-04-09T04:05:00;2.20;99.90
70820;DHT22;58439;51.046;13.692;2023-04-09T04:07:33;2.20;99.90
70820;DHT22;58439;51.046;13.692;2023-04-09T04:10:11;2.30;99.90
70820;DHT22;58439;51.046;13.692;2023-04-09T04:12:42;2.30;99.90
70820;DHT22;58439;51.046;13.692;2023-04-09T04:15:14;2.30;99.90
70820;DHT22;58439;51.046;13.692;2023-04-09T04:17:47;2.40;99.90
70820;DHT22;58439;51.046;13.692;2023-04-09T04:20:25;2.50;99.90
70820;DHT22;58439;51.046;13.692;2023-04-09T04:22:58;2.50;99.90
70820;DHT22;58439;51.046;13.692;2023-04-09T04:25:26;2.50;99.90
70820;DHT22;58439;51.046;13.692;2023-04-09T04:27:54;2.50;99.90
70820;DHT22;58439;51.046;13.692;2023-04-09T04:30:27;2.60;99.90
70820;DHT22;58439;51.046;13.692;2023-04-09T04:32:59;2.60;99.90
70820;DHT22;58439;51.046;13.692;2023-04-09T04:35:34;2.60;99.90
70820;DHT22;58439;51.046;13.692;2023-04-09T04:38:05;2.60;99.90
70820;DHT22;58439;51.046;13.692;2023-04-09T04:40:34;2.70;99.90
70820;DHT22;58439;51.046;13.692;2023-04-09T04:43:02;2.70;99.90
70820;DHT22;58439;51.046;13.692;2023-04-09T04:45:29;2.70;99.90
70820;DHT22;58439;51.046;13.692;2023-04-09T04:48:03;2.70;99.90
70820;DHT22;58439;51.046;13.692;2023-04-09T04:50:30;2.70;99.90
70820;DHT22;58439;51.046;13.692;2023-04-09T04:53:06;2.70;99.90
70820;DHT22;58439;51.046;13.692;2023-04-09T04:55:41;2.70;99.90
70820;DHT22;58439;51.046;13.692;2023-04-09T04:58:12;2.70;99.90
70820;DHT22;58439;51.046;13.692;2023-04-09T05:00:45;2.70;99.90
70820;DHT22;58439;51.046;13.692;2023-04-09T05:03:13;2.70;99.90
70820;DHT22;58439;51.046;13.692;2023-04-09T05:06:09;2.80;99.90
70820;DHT22;58439;51.046;13.692;2023-04-09T05:08:41;2.80;99.90
70820;DHT22;58439;51.046;13.692;2023-04-09T05:11:12;2.90;99.90
70820;DHT22;58439;51.046;13.692;2023-04-09T05:13:44;2.90;99.90
70820;DHT22;58439;51.046;13.692;2023-04-09T05:16:16;2.90;99.90
70820;DHT22;58439;51.046;13.692;2023-04-09T05:18:48;2.90;99.90
70820;DHT22;58439;51.046;13.692;2023-04-09T05:21:16;2.90;99.90
70820;DHT22;58439;51.046;13.692;2023-04-09T05:23:45;3.00;99.90
70820;DHT22;58439;51.046;13.692;2023-04-09T05:26:12;3.00;99.90
70820;DHT22;58439;51.046;13.692;2023-04-09T05:28:50;3.10;99.90
70820;DHT22;58439;51.046;13.692;2023-04-09T05:31:20;3.10;99.90
70820;DHT22;58439;51.046;13.692;2023-04-09T05:34:11;3.20;99.90
70820;DHT22;58439;51.046;13.692;2023-04-09T05:36:45;3.30;99.90
70820;DHT22;58439;51.046;13.692;2023-04-09T05:39:15;3.40;99.90
70820;DHT22;58439;51.046;13.692;2023-04-09T05:41:43;3.40;99.90
70820;DHT22;58439;51.046;13.692;2023-04-09T05:44:24;3.50;99.90
70820;DHT22;58439;51.046;13.692;2023-04-09T05:46:58;3.60;99.90
70820;DHT22;58439;51.046;13.692;2023-04-09T05:49:31;3.70;99.90
70820;DHT22;58439;51.046;13.692;2023-04-09T05:52:01;3.90;99.90
70820;DHT22;58439;51.046;13.692;2023-04-09T05:54:31;4.10;99.90
70820;DHT22;58439;51.046;13.692;2023-04-09T05:56:58;4.30;99.90
70820;DHT22;58439;51.046;13.692;2023-04-09T05:59:25;4.50;99.90
70820;DHT22;58439;51.046;13.692;2023-04-09T06:01:52;4.60;99.90
70820;DHT22;58439;51.046;13.692;2023-04-09T06:04:20;4.70;99.90
70820;DHT22;58439;51.046;13.692;2023-04-09T06:06:47;4.80;99.90
70820;DHT22;58439;51.046;13.692;2023-04-09T06:09:15;4.90;99.90
70820;DHT22;58439;51.046;13.692;2023-04-09T06:11:42;5.10;99.90
70820;DHT22;58439;51.046;13.692;2023-04-09T06:14:10;5.20;99.90
70820;DHT22;58439;51.046;13.692;2023-04-09T06:16:42;5.40;99.90
70820;DHT22;58439;51.046;13.692;2023-04-09T06:19:09;5.50;99.90
70820;DHT22;58439;51.046;13.692;2023-04-09T06:21:38;5.50;99.90
70820;DHT22;58439;51.046;13.692;2023-04-09T06:24:06;5.50;99.90
70820;DHT22;58439;51.046;13.692;2023-04-09T06:26:33;5.60;99.90
70820;DHT22;58439;51.046;13.692;2023-04-09T06:29:01;5.50;99.90
70820;DHT22;58439;51.046;13.692;2023-04-09T06:31:28;5.50;99.90
70820;DHT22;58439;51.046;13.692;2023-04-09T06:33:55;5.50;99.90
70820;DHT22;58439;51.046;13.692;2023-04-09T06:36:23;5.50;99.90
70820;DHT22;58439;51.046;13.692;2023-04-09T06:38:50;5.50;99.90
70820;DHT22;58439;51.046;13.692;2023-04-09T06:41:20;5.50;99.90
70820;DHT22;58439;51.046;13.692;2023-04-09T06:43:48;5.50;99.90
70820;DHT22;58439;51.046;13.692;2023-04-09T06:46:15;5.60;99.90
70820;DHT22;58439;51.046;13.692;2023-04-09T06:48:46;5.70;99.90
70820;DHT22;58439;51.046;13.692;2023-04-09T06:51:13;5.70;99.90
70820;DHT22;58439;51.046;13.692;2023-04-09T06:53:41;5.80;99.90
70820;DHT22;58439;51.046;13.692;2023-04-09T06:56:08;5.80;99.90
70820;DHT22;58439;51.046;13.692;2023-04-09T06:58:35;5.80;99.90
70820;DHT22;58439;51.046;13.692;2023-04-09T07:01:03;5.90;99.90
70820;DHT22;58439;51.046;13.692;2023-04-09T07:03:30;5.90;99.90
70820;DHT22;58439;51.046;13.692;2023-04-09T07:05:58;6.00;99.90
70820;DHT22;58439;51.046;13.692;2023-04-09T07:08:25;6.10;99.90
70820;DHT22;58439;51.046;13.692;2023-04-09T07:10:52;6.10;99.90
70820;DHT22;58439;51.046;13.692;2023-04-09T07:13:20;6.20;99.90
70820;DHT22;58439;51.046;13.692;2023-04-09T07:15:48;6.30;99.90
70820;DHT22;58439;51.046;13.692;2023-04-09T07:18:15;6.30;99.90
70820;DHT22;58439;51.046;13.692;2023-04-09T07:20:48;6.40;99.90
70820;DHT22;58439;51.046;13.692;2023-04-09T07:23:16;6.40;99.90
70820;DHT22;58439;51.046;13.692;2023-04-09T07:25:43;6.50;99.90
70820;DHT22;58439;51.046;13.692;2023-04-09T07:28:13;6.60;99.90
70820;DHT22;58439;51.046;13.692;2023-04-09T07:30:40;6.80;99.90
70820;DHT22;58439;51.046;13.692;2023-04-09T07:33:08;6.80;99.90
70820;DHT22;58439;51.046;13.692;2023-04-09T07:35:35;6.90;99.90
70820;DHT22;58439;51.046;13.692;2023-04-09T07:38:02;7.00;99.90
70820;DHT22;58439;51.046;13.692;2023-04-09T07:40:29;7.10;99.90
70820;DHT22;58439;51.046;13.692;2023-04-09T07:42:56;7.20;99.90
70820;DHT22;58439;51.046;13.692;2023-04-09T07:45:23;7.20;99.90
70820;DHT22;58439;51.046;13.692;2023-04-09T07:47:51;7.30;99.70
70820;DHT22;58439;51.046;13.692;2023-04-09T07:50:18;7.30;99.60
70820;DHT22;58439;51.046;13.692;2023-04-09T07:52:45;7.40;99.40
70820;DHT22;58439;51.046;13.692;2023-04-09T07:55:13;7.50;99.00
70820;DHT22;58439;51.046;13.692;2023-04-09T07:57:41;7.60;98.20
70820;DHT22;58439;51.046;13.692;2023-04-09T08:00:09;7.60;98.10
70820;DHT22;58439;51.046;13.692;2023-04-09T08:02:39;7.60;98.20
70820;DHT22;58439;51.046;13.692;2023-04-09T08:05:08;7.70;97.80
70820;DHT22;58439;51.046;13.692;2023-04-09T08:07:35;7.70;97.70
70820;DHT22;58439;51.046;13.692;2023-04-09T08:10:04;7.80;97.30
70820;DHT22;58439;51.046;13.692;2023-04-09T08:12:32;7.90;96.90
70820;DHT22;58439;51.046;13.692;2023-04-09T08:15:00;8.00;97.00
70820;DHT22;58439;51.046;13.692;2023-04-09T08:17:29;8.10;96.40
70820;DHT22;58439;51.046;13.692;2023-04-09T08:19:57;8.20;95.70
70820;DHT22;58439;51.046;13.692;2023-04-09T08:22:24;8.30;95.10
70820;DHT22;58439;51.046;13.692;2023-04-09T08:24:51;8.40;95.10
70820;DHT22;58439;51.046;13.692;2023-04-09T08:27:19;8.50;95.20
70820;DHT22;58439;51.046;13.692;2023-04-09T08:29:47;8.50;94.50
70820;DHT22;58439;51.046;13.692;2023-04-09T08:32:14;8.40;94.30
70820;DHT22;58439;51.046;13.692;2023-04-09T08:34:42;8.40;94.20
70820;DHT22;58439;51.046;13.692;2023-04-09T08:37:09;8.50;93.90
70820;DHT22;58439;51.046;13.692;2023-04-09T08:39:36;8.60;93.80
70820;DHT22;58439;51.046;13.692;2023-04-09T08:42:04;8.70;92.30
70820;DHT22;58439;51.046;13.692;2023-04-09T08:44:33;8.80;92.40
70820;DHT22;58439;51.046;13.692;2023-04-09T08:47:00;9.00;92.00
70820;DHT22;58439;51.046;13.692;2023-04-09T08:49:28;9.10;91.60
70820;DHT22;58439;51.046;13.692;2023-04-09T08:51:55;9.10;91.30
70820;DHT22;58439;51.046;13.692;2023-04-09T08:54:22;9.10;91.30
70820;DHT22;58439;51.046;13.692;2023-04-09T08:56:52;9.10;90.90
70820;DHT22;58439;51.046;13.692;2023-04-09T08:59:19;9.10;90.80
70820;DHT22;58439;51.046;13.692;2023-04-09T09:01:46;9.30;90.20
70820;DHT22;58439;51.046;13.692;2023-04-09T09:04:20;9.30;89.40
70820;DHT22;58439;51.046;13.692;2023-04-09T09:06:47;9.40;88.90
70820;DHT22;58439;51.046;13.692;2023-04-09T09:09:16;9.60;87.20
70820;DHT22;58439;51.046;13.692;2023-04-09T09:11:46;9.80;87.70
70820;DHT22;58439;51.046;13.692;2023-04-09T09:14:17;10.10;85.20
70820;DHT22;58439;51.046;13.692;2023-04-09T09:21:56;10.50;85.10
70820;DHT22;58439;51.046;13.692;2023-04-09T09:24:24;10.80;82.00
70820;DHT22;58439;51.046;13.692;2023-04-09T09:26:52;11.10;75.10
70820;DHT22;58439;51.046;13.692;2023-04-09T09:29:27;11.20;69.80
70820;DHT22;58439;51.046;13.692;2023-04-09T09:31:55;11.40;72.40
70820;DHT22;58439;51.046;13.692;2023-04-09T09:34:24;11.70;65.30
70820;DHT22;58439;51.046;13.692;2023-04-09T09:36:51;11.80;62.90
70820;DHT22;58439;51.046;13.692;2023-04-09T09:39:19;11.90;61.70
70820;DHT22;58439;51.046;13.692;2023-04-09T09:41:47;12.10;60.70
70820;DHT22;58439;51.046;13.692;2023-04-09T09:44:33;12.00;60.20
70820;DHT22;58439;51.046;13.692;2023-04-09T09:47:02;11.90;60.90
70820;DHT22;58439;51.046;13.692;2023-04-09T09:49:30;11.90;58.40
70820;DHT22;58439;51.046;13.692;2023-04-09T09:52:00;12.00;60.00
70820;DHT22;58439;51.046;13.692;2023-04-09T09:54:40;12.30;59.40
70820;DHT22;58439;51.046;13.692;2023-04-09T09:57:09;12.60;55.40
70820;DHT22;58439;51.046;13.692;2023-04-09T09:59:45;13.10;53.70
70820;DHT22;58439;51.046;13.692;2023-04-09T10:02:19;13.40;51.10
70820;DHT22;58439;51.046;13.692;2023-04-09T10:04:49;13.70;49.80
70820;DHT22;58439;51.046;13.692;2023-04-09T10:07:22;14.00;49.60
70820;DHT22;58439;51.046;13.692;2023-04-09T10:09:52;14.20;47.20
70820;DHT22;58439;51.046;13.692;2023-04-09T10:12:22;14.20;45.70
70820;DHT22;58439;51.046;13.692;2023-04-09T10:14:52;14.10;45.50
70820;DHT22;58439;51.046;13.692;2023-04-09T10:17:22;14.00;45.60
70820;DHT22;58439;51.046;13.692;2023-04-09T10:20:11;14.00;46.00
70820;DHT22;58439;51.046;13.692;2023-04-09T10:22:45;14.10;45.50
70820;DHT22;58439;51.046;13.692;2023-04-09T10:25:15;14.00;45.50
70820;DHT22;58439;51.046;13.692;2023-04-09T10:27:58;14.00;45.70
70820;DHT22;58439;51.046;13.692;2023-04-09T10:30:34;13.90;45.80
70820;DHT22;58439;51.046;13.692;2023-04-09T10:33:15;13.90;45.80
70820;DHT22;58439;51.046;13.692;2023-04-09T10:35:47;13.80;45.90
70820;DHT22;58439;51.046;13.692;2023-04-09T10:38:14;13.90;45.60
70820;DHT22;58439;51.046;13.692;2023-04-09T10:40:47;13.80;46.00
70820;DHT22;58439;51.046;13.692;2023-04-09T10:43:19;13.70;46.10
70820;DHT22;58439;51.046;13.692;2023-04-09T10:45:49;13.70;46.60
70820;DHT22;58439;51.046;13.692;2023-04-09T10:48:20;13.70;46.10
70820;DHT22;58439;51.046;13.692;2023-04-09T10:50:49;13.70;46.50
70820;DHT22;58439;51.046;13.692;2023-04-09T10:53:24;13.80;46.60
70820;DHT22;58439;51.046;13.692;2023-04-09T10:55:52;14.00;46.00
70820;DHT22;58439;51.046;13.692;2023-04-09T10:58:20;14.00;45.50
70820;DHT22;58439;51.046;13.692;2023-04-09T11:00:49;13.80;45.80
70820;DHT22;58439;51.046;13.692;2023-04-09T11:03:20;13.70;46.10
70820;DHT22;58439;51.046;13.692;2023-04-09T11:06:07;13.80;46.70
70820;DHT22;58439;51.046;13.692;2023-04-09T11:08:37;13.90;45.80
70820;DHT22;58439;51.046;13.692;2023-04-09T11:11:04;13.90;45.80
70820;DHT22;58439;51.046;13.692;2023-04-09T11:13:32;13.80;46.20
70820;DHT22;58439;51.046;13.692;2023-04-09T11:16:00;13.90;46.40
70820;DHT22;58439;51.046;13.692;2023-04-09T11:18:34;14.00;45.70
70820;DHT22;58439;51.046;13.692;2023-04-09T11:21:03;14.20;45.50
70820;DHT22;58439;51.046;13.692;2023-04-09T11:23:31;14.50;45.00
70820;DHT22;58439;51.046;13.692;2023-04-09T11:25:59;14.90;44.60
70820;DHT22;58439;51.046;13.692;2023-04-09T11:28:27;15.20;42.90
70820;DHT22;58439;51.046;13.692;2023-04-09T11:30:55;15.40;42.40
70820;DHT22;58439;51.046;13.692;2023-04-09T11:33:22;15.60;42.20
70820;DHT22;58439;51.046;13.692;2023-04-09T11:35:50;15.80;41.90
70820;DHT22;58439;51.046;13.692;2023-04-09T11:38:17;16.00;40.80
70820;DHT22;58439;51.046;13.692;2023-04-09T11:40:44;16.10;40.50
70820;DHT22;58439;51.046;13.692;2023-04-09T11:43:15;16.20;40.50
70820;DHT22;58439;51.046;13.692;2023-04-09T11:45:44;16.10;40.30
70820;DHT22;58439;51.046;13.692;2023-04-09T11:48:15;16.00;40.40
70820;DHT22;58439;51.046;13.692;2023-04-09T11:50:45;16.20;40.70
70820;DHT22;58439;51.046;13.692;2023-04-09T11:53:17;16.40;39.70
70820;DHT22;58439;51.046;13.692;2023-04-09T11:55:49;16.40;39.40
70820;DHT22;58439;51.046;13.692;2023-04-09T11:58:24;16.40;39.60
70820;DHT22;58439;51.046;13.692;2023-04-09T12:00:57;16.50;38.90
70820;DHT22;58439;51.046;13.692;2023-04-09T12:03:27;16.60;38.90
70820;DHT22;58439;51.046;13.692;2023-04-09T12:05:59;16.60;38.60
70820;DHT22;58439;51.046;13.692;2023-04-09T12:08:28;16.80;38.40
70820;DHT22;58439;51.046;13.692;2023-04-09T12:11:07;16.90;37.80
70820;DHT22;58439;51.046;13.692;2023-04-09T12:13:38;17.10;36.90
70820;DHT22;58439;51.046;13.692;2023-04-09T12:16:12;17.40;36.80
70820;DHT22;58439;51.046;13.692;2023-04-09T12:18:41;17.70;35.90
70820;DHT22;58439;51.046;13.692;2023-04-09T12:21:08;17.70;34.90
70820;DHT22;58439;51.046;13.692;2023-04-09T12:23:35;17.50;35.20
70820;DHT22;58439;51.046;13.692;2023-04-09T12:26:03;17.30;35.70
70820;DHT22;58439;51.046;13.692;2023-04-09T12:28:31;17.00;35.70
70820;DHT22;58439;51.046;13.692;2023-04-09T12:31:00;16.70;36.40
70820;DHT22;58439;51.046;13.692;2023-04-09T12:33:29;16.70;36.80
70820;DHT22;58439;51.046;13.692;2023-04-09T12:35:56;16.60;36.50
70820;DHT22;58439;51.046;13.692;2023-04-09T12:38:24;16.50;36.70
70820;DHT22;58439;51.046;13.692;2023-04-09T12:40:52;16.40;36.80
70820;DHT22;58439;51.046;13.692;2023-04-09T12:43:19;16.20;36.80
70820;DHT22;58439;51.046;13.692;2023-04-09T12:45:46;16.10;37.30
70820;DHT22;58439;51.046;13.692;2023-04-09T12:48:18;16.00;37.40
70820;DHT22;58439;51.046;13.692;2023-04-09T12:50:45;15.90;37.80
70820;DHT22;58439;51.046;13.692;2023-04-09T12:53:25;15.90;37.70
70820;DHT22;58439;51.046;13.692;2023-04-09T12:55:52;16.00;37.90
70820;DHT22;58439;51.046;13.692;2023-04-09T12:58:20;16.10;37.70
70820;DHT22;58439;51.046;13.692;2023-04-09T13:00:47;16.30;37.20
70820;DHT22;58439;51.046;13.692;2023-04-09T13:03:15;16.50;37.20
70820;DHT22;58439;51.046;13.692;2023-04-09T13:05:46;16.70;36.60
70820;DHT22;58439;51.046;13.692;2023-04-09T13:08:13;17.00;35.80
70820;DHT22;58439;51.046;13.692;2023-04-09T13:10:41;17.50;35.20
70820;DHT22;58439;51.046;13.692;2023-04-09T13:13:08;18.30;34.00
70820;DHT22;58439;51.046;13.692;2023-04-09T13:15:40;19.50;32.50
70820;DHT22;58439;51.046;13.692;2023-04-09T13:18:13;20.40;30.20
70820;DHT22;58439;51.046;13.692;2023-04-09T13:20:40;21.00;29.10
70820;DHT22;58439;51.046;13.692;2023-04-09T13:23:07;21.60;28.00
70820;DHT22;58439;51.046;13.692;2023-04-09T13:25:34;21.80;27.30
70820;DHT22;58439;51.046;13.692;2023-04-09T13:28:02;21.50;27.30
70820;DHT22;58439;51.046;13.692;2023-04-09T13:30:29;20.80;27.50
70820;DHT22;58439;51.046;13.692;2023-04-09T13:32:56;20.40;27.90
70820;DHT22;58439;51.046;13.692;2023-04-09T13:35:23;20.30;27.90
70820;DHT22;58439;51.046;13.692;2023-04-09T13:37:50;20.40;27.50
70820;DHT22;58439;51.046;13.692;2023-04-09T13:40:18;20.20;27.50
70820;DHT22;58439;51.046;13.692;2023-04-09T13:42:45;20.00;28.30
70820;DHT22;58439;51.046;13.692;2023-04-09T13:45:12;20.50;28.30
70820;DHT22;58439;51.046;13.692;2023-04-09T13:47:39;21.60;27.00
70820;DHT22;58439;51.046;13.692;2023-04-09T13:50:07;22.40;26.20
70820;DHT22;58439;51.046;13.692;2023-04-09T13:52:36;22.40;25.30
70820;DHT22;58439;51.046;13.692;2023-04-09T13:55:03;21.50;25.70
70820;DHT22;58439;51.046;13.692;2023-04-09T13:57:31;20.60;26.40
70820;DHT22;58439;51.046;13.692;2023-04-09T13:59:58;19.60;27.50
70820;DHT22;58439;51.046;13.692;2023-04-09T14:02:30;19.00;28.10
70820;DHT22;58439;51.046;13.692;2023-04-09T14:04:58;18.70;28.60
70820;DHT22;58439;51.046;13.692;2023-04-09T14:07:26;18.80;28.60
70820;DHT22;58439;51.046;13.692;2023-04-09T14:09:53;18.70;28.90
70820;DHT22;58439;51.046;13.692;2023-04-09T14:12:20;18.40;29.10
70820;DHT22;58439;51.046;13.692;2023-04-09T14:14:56;18.40;29.10
70820;DHT22;58439;51.046;13.692;2023-04-09T14:17:27;18.50;29.00
70820;DHT22;58439;51.046;13.692;2023-04-09T14:19:54;18.70;28.30
70820;DHT22;58439;51.046;13.692;2023-04-09T14:22:21;18.90;27.90
70820;DHT22;58439;51.046;13.692;2023-04-09T14:24:48;19.00;27.90
70820;DHT22;58439;51.046;13.692;2023-04-09T14:27:18;19.80;27.60
70820;DHT22;58439;51.046;13.692;2023-04-09T14:29:45;21.00;26.50
70820;DHT22;58439;51.046;13.692;2023-04-09T14:32:12;21.80;25.60
70820;DHT22;58439;51.046;13.692;2023-04-09T14:34:41;22.80;24.60
70820;DHT22;58439;51.046;13.692;2023-04-09T14:37:09;23.30;23.70
70820;DHT22;58439;51.046;13.692;2023-04-09T14:39:37;23.30;23.30
70820;DHT22;58439;51.046;13.692;2023-04-09T14:42:07;23.10;23.50
70820;DHT22;58439;51.046;13.692;2023-04-09T14:44:34;22.90;23.70
70820;DHT22;58439;51.046;13.692;2023-04-09T14:47:05;22.20;24.30
70820;DHT22;58439;51.046;13.692;2023-04-09T14:49:35;21.40;25.00
70820;DHT22;58439;51.046;13.692;2023-04-09T14:52:02;20.30;26.40
70820;DHT22;58439;51.046;13.692;2023-04-09T14:54:29;19.40;27.20
70820;DHT22;58439;51.046;13.692;2023-04-09T14:56:57;18.90;27.70
70820;DHT22;58439;51.046;13.692;2023-04-09T14:59:25;18.60;28.30
70820;DHT22;58439;51.046;13.692;2023-04-09T15:01:52;18.50;28.50
70820;DHT22;58439;51.046;13.692;2023-04-09T15:04:19;18.40;28.20
70820;DHT22;58439;51.046;13.692;2023-04-09T15:06:48;18.20;28.10
70820;DHT22;58439;51.046;13.692;2023-04-09T15:09:15;18.00;28.20
70820;DHT22;58439;51.046;13.692;2023-04-09T15:11:42;17.80;28.60
70820;DHT22;58439;51.046;13.692;2023-04-09T15:14:10;18.20;28.30
70820;DHT22;58439;51.046;13.692;2023-04-09T15:16:37;19.10;27.30
70820;DHT22;58439;51.046;13.692;2023-04-09T15:19:04;19.80;26.70
70820;DHT22;58439;51.046;13.692;2023-04-09T15:21:31;20.30;25.20
70820;DHT22;58439;51.046;13.692;2023-04-09T15:23:59;20.80;24.00
70820;DHT22;58439;51.046;13.692;2023-04-09T15:26:26;21.10;22.90
70820;DHT22;58439;51.046;13.692;2023-04-09T15:29:07;21.40;22.70
70820;DHT22;58439;51.046;13.692;2023-04-09T15:31:34;21.60;22.80
70820;DHT22;58439;51.046;13.692;2023-04-09T15:34:03;21.80;22.60
70820;DHT22;58439;51.046;13.692;2023-04-09T15:36:31;22.00;22.40
70820;DHT22;58439;51.046;13.692;2023-04-09T15:38:58;22.30;22.20
70820;DHT22;58439;51.046;13.692;2023-04-09T15:41:25;22.40;22.20
70820;DHT22;58439;51.046;13.692;2023-04-09T15:43:52;22.50;21.80
70820;DHT22;58439;51.046;13.692;2023-04-09T15:46:19;22.50;21.70
70820;DHT22;58439;51.046;13.692;2023-04-09T15:48:47;22.40;21.90
70820;DHT22;58439;51.046;13.692;2023-04-09T15:51:14;22.40;22.20